createdAt,value
2023-04-04T00:00:37.005Z,4.90
2023-04-04T00:03:03.997Z,5.80
2023-04-04T00:05:35.475Z,6.10
2023-04-04T00:10:29.799Z,6.10
2023-04-04T00:12:56.849Z,6.43
2023-04-04T00:15:23.737Z,7.85
2023-04-04T00:17:50.740Z,8.40
2023-04-04T00:20:17.650Z,7.55
2023-04-04T00:22:45.094Z,8.82
2023-04-04T00:25:12.229Z,8.57
2023-04-04T00:27:39.356Z,9.75
2023-04-04T00:30:07.002Z,8.45
2023-04-04T00:32:33.980Z,9.50
2023-04-04T00:35:01.192Z,8.65
2023-04-04T00:37:28.439Z,8.38
2023-04-04T00:39:55.766Z,7.65
2023-04-04T00:42:23.074Z,8.18
2023-04-04T00:44:52.009Z,7.88
2023-04-04T00:47:27.868Z,7.65
2023-04-04T00:49:55.074Z,8.23
2023-04-04T00:52:22.685Z,6.80
2023-04-04T00:54:51.416Z,6.78
2023-04-04T00:57:19.368Z,6.35
2023-04-04T00:59:46.677Z,5.47
2023-04-04T01:02:13.617Z,5.10
2023-04-04T01:04:40.985Z,5.55
2023-04-04T01:07:07.942Z,5.35
2023-04-04T01:09:35.967Z,4.50
2023-04-04T01:12:03.053Z,3.65
2023-04-04T01:14:32.028Z,3.28
2023-04-04T01:17:00.257Z,3.42
2023-04-04T01:19:36.980Z,3.55
2023-04-04T01:22:10.014Z,3.60
2023-04-04T01:24:42.179Z,3.28
2023-04-04T01:27:09.741Z,3.40
2023-04-04T01:29:42.646Z,3.67
2023-04-04T01:32:27.785Z,3.58
2023-04-04T01:35:21.534Z,3.85
2023-04-04T01:37:48.794Z,4.10
2023-04-04T01:40:21.923Z,4.05
2023-04-04T01:42:52.815Z,3.40
2023-04-04T01:45:24.413Z,3.30
2023-04-04T01:47:52.238Z,3.28
2023-04-04T01:50:22.798Z,2.88
2023-04-04T01:52:50.082Z,2.58
2023-04-04T01:55:17.296Z,2.72
2023-04-04T01:57:44.344Z,2.47
2023-04-04T02:00:11.954Z,2.80
2023-04-04T02:02:44.490Z,2.85
2023-04-04T02:05:12.086Z,3.22
2023-04-04T02:07:39.036Z,3.42
2023-04-04T02:10:14.410Z,2.97
2023-04-04T02:12:41.454Z,3.35
2023-04-04T02:15:08.866Z,2.95
2023-04-04T02:17:35.955Z,3.00
2023-04-04T02:20:04.043Z,2.88
2023-04-04T02:22:31.279Z,3.00
2023-04-04T02:24:58.201Z,2.25
2023-04-04T02:27:25.058Z,2.45
2023-04-04T02:29:52.683Z,1.83
2023-04-04T02:32:19.573Z,2.58
2023-04-04T02:34:47.684Z,2.42
2023-04-04T02:37:14.626Z,2.33
2023-04-04T02:39:42.808Z,2.17
2023-04-04T02:42:09.621Z,1.80
2023-04-04T02:44:37.151Z,1.75
2023-04-04T02:47:06.436Z,1.92
2023-04-04T02:49:33.509Z,1.35
2023-04-04T02:52:01.217Z,1.40
2023-04-04T02:54:33.654Z,1.27
2023-04-04T02:57:02.036Z,1.02
2023-04-04T02:59:28.967Z,1.40
2023-04-04T03:01:56.189Z,1.40
2023-04-04T03:04:23.390Z,1.45
2023-04-04T03:06:50.866Z,1.50
2023-04-04T03:09:17.716Z,1.70
2023-04-04T03:11:44.777Z,1.33
2023-04-04T03:14:12.172Z,1.30
2023-04-04T03:16:40.190Z,1.58
2023-04-04T03:19:07.612Z,1.45
2023-04-04T03:21:34.702Z,1.60
2023-04-04T03:24:01.642Z,1.45
2023-04-04T03:26:29.382Z,1.38
2023-04-04T03:28:56.902Z,1.50
2023-04-04T03:31:25.453Z,1.58
2023-04-04T03:33:52.889Z,1.70
2023-04-04T03:36:22.784Z,1.63
2023-04-04T03:38:50.797Z,1.80
2023-04-04T03:41:17.855Z,1.60
2023-04-04T03:43:45.508Z,1.40
2023-04-04T03:46:12.455Z,2.15
2023-04-04T03:48:39.284Z,2.15
2023-04-04T03:51:09.626Z,3.22
2023-04-04T03:53:37.550Z,2.67
2023-04-04T03:56:05.105Z,2.40
2023-04-04T03:58:32.190Z,3.05
2023-04-04T04:00:59.217Z,3.05
2023-04-04T04:03:29.881Z,3.50
2023-04-04T04:05:57.317Z,2.97
2023-04-04T04:08:25.266Z,3.78
2023-04-04T04:10:52.266Z,4.22
2023-04-04T04:13:19.282Z,3.90
2023-04-04T04:15:46.797Z,4.43
2023-04-04T04:18:19.199Z,4.70
2023-04-04T04:20:46.366Z,4.63
2023-04-04T04:23:13.336Z,3.90
2023-04-04T04:25:40.944Z,4.22
2023-04-04T04:28:19.999Z,4.32
2023-04-04T04:30:48.705Z,4.25
2023-04-04T04:33:19.827Z,3.63
2023-04-04T04:36:01.534Z,3.95
2023-04-04T04:38:33.319Z,3.10
2023-04-04T04:41:01.536Z,2.88
2023-04-04T04:43:37.393Z,3.00
2023-04-04T04:46:04.663Z,2.95
2023-04-04T04:48:31.952Z,3.28
2023-04-04T04:51:00.386Z,3.83
2023-04-04T04:53:37.166Z,4.15
2023-04-04T04:56:05.420Z,4.00
2023-04-04T04:58:33.931Z,5.00
2023-04-04T05:03:37.453Z,5.38
2023-04-04T05:06:07.544Z,6.15
2023-04-04T05:08:36.091Z,7.03
2023-04-04T05:11:10.979Z,6.50
2023-04-04T05:13:38.037Z,7.35
2023-04-04T05:16:05.759Z,7.82
2023-04-04T05:18:34.772Z,8.45
2023-04-04T05:21:02.962Z,7.88
2023-04-04T05:23:30.548Z,7.47
2023-04-04T05:25:57.573Z,8.30
2023-04-04T05:28:28.369Z,7.50
2023-04-04T05:30:58.956Z,8.23
2023-04-04T05:36:03.629Z,7.88
2023-04-04T05:38:33.525Z,9.50
2023-04-04T05:41:00.533Z,8.90
2023-04-04T05:43:27.804Z,8.80
2023-04-04T05:46:06.689Z,9.43
2023-04-04T05:48:40.399Z,10.07
2023-04-04T05:51:07.472Z,9.88
2023-04-04T05:53:42.697Z,10.57
2023-04-04T05:56:10.533Z,10.10
2023-04-04T05:58:37.761Z,9.80
2023-04-04T06:01:08.969Z,10.93
2023-04-04T06:03:36.862Z,10.25
2023-04-04T06:06:09.084Z,10.27
2023-04-04T06:08:46.622Z,9.35
2023-04-04T06:11:22.758Z,10.38
2023-04-04T06:13:51.310Z,9.25
2023-04-04T06:16:20.207Z,10.23
2023-04-04T06:18:48.569Z,10.95
2023-04-04T06:21:15.506Z,10.88
2023-04-04T06:23:42.444Z,9.52
2023-04-04T06:26:10.529Z,9.93
2023-04-04T06:28:49.872Z,9.25
2023-04-04T06:31:24.686Z,8.50
2023-04-04T06:33:54.372Z,8.85
2023-04-04T06:36:23.654Z,9.60
2023-04-04T06:38:52.765Z,3.92
2023-04-04T06:41:22.049Z,3.63
2023-04-04T06:43:51.249Z,2.28
2023-04-04T06:46:18.565Z,1.50
2023-04-04T06:48:45.736Z,1.67
2023-04-04T06:51:12.939Z,1.08
2023-04-04T06:53:44.444Z,1.00
2023-04-04T06:56:12.134Z,1.63
2023-04-04T06:58:40.235Z,1.17
2023-04-04T07:01:07.725Z,1.23
2023-04-04T07:03:34.953Z,1.15
2023-04-04T07:06:05.501Z,1.00
2023-04-04T07:08:36.086Z,1.00
2023-04-04T07:11:05.102Z,0.80
2023-04-04T07:13:32.018Z,1.00
2023-04-04T07:15:59.206Z,0.85
2023-04-04T07:18:26.233Z,1.17
2023-04-04T07:20:53.152Z,0.80
2023-04-04T07:23:19.997Z,0.95
2023-04-04T07:25:47.749Z,0.70
2023-04-04T07:28:14.651Z,1.00
2023-04-04T07:30:41.801Z,0.90
2023-04-04T07:33:09.099Z,0.90
2023-04-04T07:35:36.599Z,0.70
2023-04-04T07:38:05.051Z,1.20
2023-04-04T07:40:32.026Z,1.15
2023-04-04T07:42:58.912Z,1.70
2023-04-04T07:45:26.186Z,0.90
2023-04-04T07:47:53.150Z,0.88
2023-04-04T07:50:20.421Z,0.90
2023-04-04T07:52:55.919Z,0.88
2023-04-04T07:55:25.472Z,1.00
2023-04-04T07:57:53.532Z,0.95
2023-04-04T08:00:22.663Z,1.20
2023-04-04T08:02:54.414Z,1.00
2023-04-04T08:05:21.969Z,1.00
2023-04-04T08:07:48.944Z,0.95
2023-04-04T08:10:19.271Z,0.68
2023-04-04T08:12:46.690Z,1.10
2023-04-04T08:15:14.089Z,1.10
2023-04-04T08:17:43.232Z,1.00
2023-04-04T08:20:13.344Z,1.45
2023-04-04T08:22:41.099Z,1.30
2023-04-04T08:25:08.868Z,1.40
2023-04-04T08:27:35.910Z,1.45
2023-04-04T08:30:04.186Z,1.58
2023-04-04T08:32:32.312Z,1.77
2023-04-04T08:34:59.593Z,1.33
2023-04-04T08:37:26.840Z,1.63
2023-04-04T08:39:55.427Z,1.50
2023-04-04T08:42:24.848Z,1.60
2023-04-04T08:44:54.275Z,1.40
2023-04-04T08:47:24.418Z,1.33
2023-04-04T08:49:53.421Z,1.60
2023-04-04T08:52:25.550Z,1.60
2023-04-04T08:54:53.970Z,1.30
2023-04-04T08:57:21.278Z,1.20
2023-04-04T08:59:48.728Z,1.60
2023-04-04T09:02:16.542Z,1.50
2023-04-04T09:04:51.401Z,1.98
2023-04-04T09:07:28.017Z,1.98
2023-04-04T09:09:56.510Z,1.98
2023-04-04T09:12:26.280Z,1.60
2023-04-04T09:14:55.596Z,1.98
2023-04-04T09:17:22.600Z,2.15
2023-04-04T09:19:49.636Z,1.30
2023-04-04T09:22:17.607Z,2.13
2023-04-04T09:24:44.573Z,1.63
2023-04-04T09:27:12.389Z,1.88
2023-04-04T09:29:40.291Z,1.52
2023-04-04T09:32:14.622Z,1.80
2023-04-04T09:34:43.732Z,1.88
2023-04-04T09:37:14.267Z,1.73
2023-04-04T09:39:42.134Z,2.40
2023-04-04T09:42:09.627Z,1.85
2023-04-04T09:44:37.001Z,2.10
2023-04-04T09:50:01.408Z,2.10
2023-04-04T09:52:37.034Z,2.25
2023-04-04T09:55:05.383Z,2.15
2023-04-04T09:57:34.745Z,2.00
2023-04-04T10:00:09.569Z,1.88
2023-04-04T10:02:39.303Z,2.50
2023-04-04T10:12:40.156Z,2.20
2023-04-04T10:15:08.584Z,1.90
2023-04-04T10:17:40.441Z,1.55
2023-04-04T10:20:09.477Z,1.88
2023-04-04T10:22:38.203Z,2.08
2023-04-04T10:25:06.354Z,1.60
2023-04-04T10:27:34.324Z,1.67
2023-04-04T10:30:02.226Z,1.50
2023-04-04T10:32:48.794Z,1.80
2023-04-04T10:35:17.310Z,1.80
2023-04-04T10:37:51.529Z,1.60
2023-04-04T10:40:24.435Z,1.90
2023-04-04T10:42:53.086Z,1.90
2023-04-04T10:45:21.677Z,1.90
2023-04-04T10:47:49.487Z,2.22
2023-04-04T10:50:16.821Z,1.92
2023-04-04T10:52:45.425Z,1.50
2023-04-04T10:55:14.952Z,2.10
2023-04-04T10:57:52.443Z,2.42
2023-04-04T11:00:23.473Z,2.20
2023-04-04T11:02:55.078Z,2.55
2023-04-04T11:05:34.687Z,2.40
2023-04-04T11:08:09.911Z,2.53
2023-04-04T11:10:39.326Z,2.90
2023-04-04T11:16:03.887Z,2.55
2023-04-04T11:18:42.931Z,2.40
2023-04-04T11:21:14.475Z,2.95
2023-04-04T11:23:47.742Z,3.05
2023-04-04T11:26:41.447Z,2.80
2023-04-04T11:29:09.088Z,2.72
2023-04-04T11:31:43.198Z,2.97
2023-04-04T11:34:12.722Z,3.28
2023-04-04T11:36:40.351Z,2.78
2023-04-04T11:39:14.846Z,2.72
2023-04-04T11:42:10.659Z,2.78
2023-04-04T11:45:02.972Z,3.17
2023-04-04T11:47:31.896Z,3.45
2023-04-04T11:50:01.261Z,3.28
2023-04-04T11:52:35.417Z,3.17
2023-04-04T11:55:02.597Z,3.10
2023-04-04T11:57:34.114Z,2.97
2023-04-04T12:00:05.495Z,3.38
2023-04-04T12:02:37.976Z,3.08
2023-04-04T12:05:08.239Z,3.85
2023-04-04T12:07:37.369Z,3.78
2023-04-04T12:10:06.206Z,3.67
2023-04-04T12:12:37.929Z,3.08
2023-04-04T12:15:16.934Z,3.70
2023-04-04T12:17:45.942Z,3.33
2023-04-04T12:20:16.610Z,2.90
2023-04-04T12:22:44.045Z,3.80
2023-04-04T12:25:11.432Z,4.10
2023-04-04T12:27:38.632Z,3.95
2023-04-04T12:30:10.890Z,4.07
2023-04-04T12:32:38.087Z,4.10
2023-04-04T12:35:06.132Z,4.28
2023-04-04T12:37:33.361Z,3.90
2023-04-04T12:40:02.393Z,3.78
2023-04-04T12:42:32.082Z,4.55
2023-04-04T12:45:02.260Z,4.18
2023-04-04T12:47:31.459Z,4.45
2023-04-04T12:49:58.548Z,3.97
2023-04-04T12:52:32.391Z,4.68
2023-04-04T12:55:08.458Z,4.85
2023-04-04T12:57:38.222Z,5.10
2023-04-04T13:00:07.859Z,5.53
2023-04-04T13:02:36.530Z,4.60
2023-04-04T13:05:04.173Z,5.40
2023-04-04T13:07:39.137Z,5.72
2023-04-04T13:10:06.774Z,5.20
2023-04-04T13:12:59.506Z,5.22
2023-04-04T13:15:52.821Z,5.32
2023-04-04T13:18:22.254Z,5.20
2023-04-04T13:20:50.758Z,4.93
2023-04-04T13:23:18.803Z,5.20
2023-04-04T13:25:46.663Z,4.72
2023-04-04T13:28:14.399Z,5.15
2023-04-04T13:30:49.167Z,5.20
2023-04-04T13:33:18.809Z,6.22
2023-04-04T13:35:46.883Z,5.68
2023-04-04T13:38:14.188Z,5.55
2023-04-04T13:40:41.309Z,5.70
2023-04-04T13:43:12.920Z,5.85
2023-04-04T13:45:39.933Z,6.93
2023-04-04T13:48:07.095Z,9.45
2023-04-04T13:50:36.851Z,7.88
2023-04-04T13:53:03.962Z,7.32
2023-04-04T13:55:31.091Z,6.32
2023-04-04T13:57:58.136Z,6.82
2023-04-04T14:00:25.724Z,6.13
2023-04-04T14:02:55.652Z,6.40
2023-04-04T14:05:23.511Z,6.63
2023-04-04T14:07:50.808Z,6.95
2023-04-04T14:10:18.042Z,7.05
2023-04-04T14:12:44.952Z,6.38
2023-04-04T14:15:12.456Z,6.90
2023-04-04T14:17:39.463Z,7.05
2023-04-04T14:20:07.980Z,7.85
2023-04-04T14:22:35.435Z,7.45
2023-04-04T14:25:02.523Z,6.75
2023-04-04T14:27:30.486Z,6.05
2023-04-04T14:29:57.583Z,6.60
2023-04-04T14:32:27.521Z,5.95
2023-04-04T14:34:54.738Z,7.45
2023-04-04T14:37:21.968Z,6.47
2023-04-04T14:39:49.144Z,7.38
2023-04-04T14:42:16.079Z,8.38
2023-04-04T14:44:43.348Z,7.90
2023-04-04T14:47:10.227Z,8.50
2023-04-04T14:49:37.158Z,7.63
2023-04-04T14:52:04.357Z,7.57
2023-04-04T14:54:31.623Z,7.78
2023-04-04T14:56:58.635Z,8.65
2023-04-04T14:59:25.808Z,7.25
2023-04-04T15:01:52.797Z,7.30
2023-04-04T15:04:19.831Z,8.40
2023-04-04T15:06:47.178Z,7.32
2023-04-04T15:09:14.099Z,8.10
2023-04-04T15:11:41.338Z,7.80
2023-04-04T15:14:08.213Z,7.22
2023-04-04T15:16:36.007Z,8.85
2023-04-04T15:19:03.216Z,8.50
2023-04-04T15:21:32.579Z,7.75
2023-04-04T15:23:59.780Z,7.43
2023-04-04T15:26:26.670Z,7.22
2023-04-04T15:28:53.836Z,8.75
2023-04-04T15:31:21.044Z,7.95
2023-04-04T15:33:48.650Z,8.13
2023-04-04T15:36:15.590Z,6.88
2023-04-04T15:38:42.618Z,6.45
2023-04-04T15:41:10.129Z,7.25
2023-04-04T15:43:37.404Z,7.38
2023-04-04T15:46:04.910Z,7.57
2023-04-04T15:48:32.499Z,7.20
2023-04-04T15:51:02.647Z,8.30
2023-04-04T15:53:31.164Z,7.40
2023-04-04T15:55:58.698Z,7.88
2023-04-04T15:58:26.756Z,8.07
2023-04-04T16:00:54.105Z,8.50
2023-04-04T16:03:21.704Z,8.32
2023-04-04T16:05:48.697Z,8.13
2023-04-04T16:08:15.897Z,8.02
2023-04-04T16:10:44.168Z,8.80
2023-04-04T16:13:11.483Z,8.87
2023-04-04T16:15:39.072Z,13.23
2023-04-04T16:18:07.059Z,9.68
2023-04-04T16:20:35.161Z,8.35
2023-04-04T16:23:02.176Z,9.70
2023-04-04T16:25:29.184Z,10.30
2023-04-04T16:27:56.502Z,9.43
2023-04-04T16:30:23.695Z,9.65
2023-04-04T16:32:51.069Z,9.77
2023-04-04T16:35:18.141Z,9.18
2023-04-04T16:37:45.338Z,9.25
2023-04-04T16:40:14.002Z,9.80
2023-04-04T16:42:42.229Z,10.13
2023-04-04T16:45:09.841Z,9.48
2023-04-04T16:47:37.318Z,9.77
2023-04-04T16:50:07.533Z,11.75
2023-04-04T16:52:34.590Z,10.82
2023-04-04T16:55:01.678Z,10.85
2023-04-04T16:57:30.446Z,9.05
2023-04-04T16:59:57.503Z,8.80
2023-04-04T17:02:24.460Z,9.82
2023-04-04T17:04:52.417Z,9.70
2023-04-04T17:07:20.751Z,9.85
2023-04-04T17:09:48.774Z,8.52
2023-04-04T17:12:16.444Z,10.57
2023-04-04T17:14:46.392Z,10.10
2023-04-04T17:17:13.480Z,11.23
2023-04-04T17:19:40.686Z,11.30
2023-04-04T17:22:07.889Z,10.98
2023-04-04T17:24:38.919Z,10.40
2023-04-04T17:27:07.612Z,13.20
2023-04-04T17:29:34.533Z,10.75
2023-04-04T17:32:01.873Z,11.02
2023-04-04T17:34:28.884Z,11.13
2023-04-04T17:36:56.071Z,11.48
2023-04-04T17:39:23.624Z,10.15
2023-04-04T17:41:52.120Z,11.98
2023-04-04T17:44:20.889Z,11.68
2023-04-04T17:46:48.168Z,10.70
2023-04-04T17:49:19.703Z,10.18
2023-04-04T17:51:48.647Z,11.38
2023-04-04T17:54:15.992Z,10.80
2023-04-04T17:56:47.219Z,12.30
2023-04-04T17:59:16.141Z,11.90
2023-04-04T18:01:43.830Z,13.32
2023-04-04T18:04:10.878Z,13.88
2023-04-04T18:06:40.267Z,14.23
2023-04-04T18:09:10.242Z,14.85
2023-04-04T18:14:05.095Z,18.20
2023-04-04T18:16:38.944Z,14.30
2023-04-04T18:19:07.325Z,17.92
2023-04-04T18:21:34.424Z,12.82
2023-04-04T18:24:01.670Z,14.00
2023-04-04T18:26:28.820Z,18.25
2023-04-04T18:28:55.942Z,11.63
2023-04-04T18:31:25.572Z,12.07
2023-04-04T18:33:55.672Z,12.63
2023-04-04T18:36:24.359Z,15.15
2023-04-04T18:38:55.395Z,11.05
2023-04-04T18:41:22.925Z,15.18
2023-04-04T18:43:50.058Z,13.25
2023-04-04T18:46:17.196Z,12.68
2023-04-04T18:48:44.148Z,12.10
2023-04-04T18:51:12.429Z,11.10
2023-04-04T18:53:39.654Z,10.70
2023-04-04T18:56:06.816Z,11.43
2023-04-04T18:58:33.823Z,11.95
2023-04-04T19:01:03.716Z,12.85
2023-04-04T19:03:39.418Z,13.52
2023-04-04T19:06:07.759Z,11.43
2023-04-04T19:08:40.255Z,10.73
2023-04-04T19:11:08.084Z,10.50
2023-04-04T19:13:35.123Z,9.82
2023-04-04T19:16:02.868Z,9.82
2023-04-04T19:18:30.145Z,9.80
2023-04-04T19:20:59.044Z,10.23
2023-04-04T19:23:27.862Z,10.60
2023-04-04T19:25:55.927Z,10.20
2023-04-04T19:28:22.983Z,10.55
2023-04-04T19:30:54.753Z,10.45
2023-04-04T19:33:23.662Z,9.90
2023-04-04T19:36:11.310Z,10.75
2023-04-04T19:38:42.627Z,10.57
2023-04-04T19:41:36.547Z,11.48
2023-04-04T19:44:06.538Z,9.63
2023-04-04T19:46:34.188Z,9.57
2023-04-04T19:49:14.697Z,10.18
2023-04-04T19:51:51.689Z,10.82
2023-04-04T19:54:24.475Z,10.60
2023-04-04T19:56:54.526Z,11.32
2023-04-04T19:59:47.312Z,12.38
2023-04-04T20:02:47.630Z,11.25
2023-04-04T20:05:47.122Z,10.63
2023-04-04T20:08:14.705Z,10.90
2023-04-04T20:10:42.592Z,9.98
2023-04-04T20:13:10.475Z,10.50
2023-04-04T20:15:47.624Z,10.05
2023-04-04T20:18:26.832Z,11.18
2023-04-04T20:20:58.486Z,10.85
2023-04-04T20:23:27.093Z,10.38
2023-04-04T20:25:54.900Z,11.90
2023-04-04T20:28:29.134Z,10.98
2023-04-04T20:31:03.053Z,10.68
2023-04-04T20:33:37.355Z,9.27
2023-04-04T20:36:12.321Z,9.93
2023-04-04T20:38:41.315Z,10.07
2023-04-04T20:41:28.880Z,9.82
2023-04-04T20:43:57.994Z,9.57
2023-04-04T20:46:28.077Z,8.40
2023-04-04T20:48:56.739Z,9.60
2023-04-04T20:51:24.401Z,9.90
2023-04-04T20:53:52.911Z,10.70
2023-04-04T20:56:39.479Z,9.30
2023-04-04T20:59:07.998Z,8.90
2023-04-04T21:01:34.991Z,9.63
2023-04-04T21:04:02.014Z,9.43
2023-04-04T21:06:29.857Z,9.65
2023-04-04T21:08:56.748Z,9.15
2023-04-04T21:11:32.545Z,9.85
2023-04-04T21:13:59.601Z,9.77
2023-04-04T21:16:27.665Z,9.50
2023-04-04T21:19:00.310Z,10.10
2023-04-04T21:21:28.550Z,7.78
2023-04-04T21:23:59.749Z,8.65
2023-04-04T21:26:29.865Z,9.38
2023-04-04T21:28:58.749Z,9.27
2023-04-04T21:31:29.847Z,8.75
2023-04-04T21:34:07.646Z,8.90
2023-04-04T21:36:34.595Z,9.55
2023-04-04T21:39:03.198Z,9.85
2023-04-04T21:41:32.687Z,9.52
2023-04-04T21:46:32.050Z,9.32
2023-04-04T21:48:59.784Z,9.18
2023-04-04T21:51:27.640Z,8.93
2023-04-04T21:53:55.091Z,10.18
2023-04-04T21:56:27.501Z,8.32
2023-04-04T21:58:55.517Z,8.23
2023-04-04T22:01:22.769Z,8.00
2023-04-04T22:03:49.897Z,8.27
2023-04-04T22:06:17.364Z,9.20
2023-04-04T22:08:44.432Z,9.18
2023-04-04T22:11:19.017Z,8.43
2023-04-04T22:13:50.603Z,9.57
2023-04-04T22:16:19.678Z,9.48
2023-04-04T22:18:52.015Z,9.80
2023-04-04T22:21:29.139Z,9.68
2023-04-04T22:24:01.993Z,10.18
2023-04-04T22:26:32.498Z,9.63
2023-04-04T22:29:03.994Z,10.00
2023-04-04T22:31:34.279Z,10.82
2023-04-04T22:34:03.311Z,9.77
2023-04-04T22:36:30.977Z,9.48
2023-04-04T22:38:58.363Z,10.13
2023-04-04T22:41:30.074Z,9.90
2023-04-04T22:43:57.719Z,9.23
2023-04-04T22:46:26.057Z,9.82
2023-04-04T22:49:04.949Z,9.98
2023-04-04T22:51:35.158Z,9.15
2023-04-04T22:56:29.339Z,9.15
2023-04-04T22:58:56.375Z,9.88
2023-04-04T23:01:23.436Z,8.23
2023-04-04T23:03:50.510Z,9.18
2023-04-04T23:06:19.953Z,9.82
2023-04-04T23:08:47.224Z,9.57
2023-04-04T23:11:14.216Z,9.20
2023-04-04T23:13:43.265Z,9.25
2023-04-04T23:16:10.468Z,10.00
2023-04-04T23:18:37.322Z,9.77
2023-04-04T23:21:04.375Z,9.90
2023-04-04T23:23:31.342Z,10.00
2023-04-04T23:25:58.529Z,9.40
2023-04-04T23:28:29.401Z,9.80
2023-04-04T23:30:56.805Z,10.05
2023-04-04T23:33:23.949Z,9.90
2023-04-04T23:35:51.128Z,9.57
2023-04-04T23:38:18.206Z,9.43
2023-04-04T23:40:45.231Z,11.88
2023-04-04T23:43:12.321Z,9.55
2023-04-04T23:45:40.293Z,9.43
2023-04-04T23:48:07.635Z,9.15
2023-04-04T23:50:34.767Z,10.88
2023-04-04T23:53:01.842Z,9.75
2023-04-04T23:55:28.801Z,9.07
2023-04-04T23:58:03.201Z,9.95
